Time;durP1;ratioP1;P1;durP2;ratioP2;P2;SDS_P1;SDS_P2;PMS_P1;PMS_P2;Temp;Humidity;BMP_temperature;BMP_pressure;BME280_temperature;BME280_humidity;BME280_pressure;Samples;Min_cycle;Max_cycle;Signal;HPM_P1;HPM_P2
2021/05/04 00:02:06;;;;;;;10.25;4.50;;;8.10;81.10;;;;;;5048564;28;20053;-61
2021/05/04 00:04:32;;;;;;;10.57;4.43;;;8.30;80.60;;;;;;5033451;28;20056;-61
2021/05/04 00:06:59;;;;;;;13.48;4.82;;;8.20;80.80;;;;;;5031174;28;20065;-61
2021/05/04 00:09:25;;;;;;;11.45;5.38;;;8.30;81.20;;;;;;5032563;28;20102;-61
2021/05/04 00:11:53;;;;;;;14.20;5.25;;;8.20;80.50;;;;;;5048700;28;20064;-61
2021/05/04 00:14:20;;;;;;;11.50;4.55;;;8.30;81.40;;;;;;5020109;28;20108;-61
2021/05/04 00:16:47;;;;;;;11.90;4.75;;;8.00;83.00;;;;;;5048249;28;20689;-61
2021/05/04 00:19:14;;;;;;;12.20;5.43;;;8.00;83.30;;;;;;5051176;28;20068;-61
2021/05/04 00:21:41;;;;;;;12.80;5.40;;;7.90;83.40;;;;;;5049226;28;20059;-61
2021/05/04 00:24:08;;;;;;;10.77;4.90;;;7.80;83.30;;;;;;5042836;28;20500;-61
2021/05/04 00:26:34;;;;;;;11.40;4.85;;;7.80;82.80;;;;;;5028984;28;20530;-61
2021/05/04 00:29:01;;;;;;;10.55;4.72;;;7.70;82.60;;;;;;5049441;28;20052;-61
2021/05/04 00:31:27;;;;;;;13.10;5.05;;;7.70;81.70;;;;;;5036416;28;20048;-61
2021/05/04 00:33:54;;;;;;;7.55;3.90;;;7.60;82.20;;;;;;5028308;28;20076;-61
2021/05/04 00:36:21;;;;;;;9.95;4.60;;;7.50;82.30;;;;;;5048171;28;20049;-61
2021/05/04 00:38:48;;;;;;;13.15;4.68;;;7.50;81.60;;;;;;5029969;28;20041;-61
2021/05/04 00:41:15;;;;;;;9.40;3.88;;;7.50;82.00;;;;;;5027936;28;20041;-61
2021/05/04 00:43:42;;;;;;;8.57;4.10;;;7.70;81.40;;;;;;5033223;28;20053;-61
2021/05/04 00:46:08;;;;;;;7.70;3.88;;;7.50;81.80;;;;;;5050877;28;20499;-61
2021/05/04 00:48:35;;;;;;;6.25;3.50;;;7.40;81.50;;;;;;5050552;28;20107;-61
2021/05/04 00:51:03;;;;;;;7.32;3.30;;;7.30;82.20;;;;;;5047715;28;20045;-61
2021/05/04 00:53:30;;;;;;;9.13;3.80;;;7.20;82.60;;;;;;5030530;28;20064;-61
2021/05/04 00:56:01;;;;;;;6.47;3.50;;;7.20;82.20;;;;;;5048946;28;20045;-61
2021/05/04 00:58:28;;;;;;;7.85;3.35;;;7.30;82.10;;;;;;5047453;28;20049;-61
2021/05/04 01:00:55;;;;;;;6.43;3.50;;;7.50;82.30;;;;;;5031371;28;20601;-61
2021/05/04 01:03:22;;;;;;;9.55;3.92;;;7.40;81.70;;;;;;5032465;28;20053;-61
2021/05/04 01:05:49;;;;;;;6.00;3.70;;;7.30;82.20;;;;;;5049064;28;20052;-61
2021/05/04 01:08:15;;;;;;;8.27;3.85;;;7.40;82.30;;;;;;5028312;28;20434;-61
2021/05/04 01:10:42;;;;;;;7.15;4.18;;;7.40;81.30;;;;;;5056644;28;20063;-61
2021/05/04 01:13:09;;;;;;;8.48;3.67;;;7.30;81.10;;;;;;5049462;28;20052;-61
2021/05/04 01:15:36;;;;;;;9.63;4.35;;;7.20;81.70;;;;;;5032288;28;20075;-61
2021/05/04 01:18:03;;;;;;;7.97;3.88;;;7.40;80.70;;;;;;5028620;28;20119;-61
2021/05/04 01:20:29;;;;;;;9.13;3.63;;;7.30;80.70;;;;;;5029136;28;20416;-61
2021/05/04 01:22:56;;;;;;;7.60;4.10;;;7.30;81.50;;;;;;5049014;28;20057;-61
2021/05/04 01:25:22;;;;;;;9.27;4.10;;;7.20;82.50;;;;;;5049311;28;20057;-61
2021/05/04 01:27:49;;;;;;;8.65;3.78;;;7.10;83.10;;;;;;5047045;28;20045;-61
2021/05/04 01:30:16;;;;;;;7.45;3.40;;;7.20;83.90;;;;;;5028158;28;20060;-61
2021/05/04 01:32:42;;;;;;;7.32;4.10;;;7.30;83.30;;;;;;5029621;28;20764;-61
2021/05/04 01:35:10;;;;;;;13.95;4.55;;;7.30;83.10;;;;;;5049342;28;20536;-61
2021/05/04 01:37:45;;;;;;;8.88;3.75;;;7.10;83.80;;;;;;5039384;28;20504;-61
2021/05/04 01:40:14;;;;;;;7.88;3.67;;;7.20;83.70;;;;;;5031682;28;20459;-61
2021/05/04 01:42:43;;;;;;;9.52;4.30;;;7.20;84.00;;;;;;5047632;28;20056;-61
2021/05/04 01:45:11;;;;;;;9.63;4.30;;;7.00;84.60;;;;;;5043606;28;20664;-61
2021/05/04 01:47:38;;;;;;;8.48;4.00;;;6.90;85.00;;;;;;5047017;28;20053;-61
2021/05/04 01:50:06;;;;;;;9.10;4.28;;;7.00;85.30;;;;;;5030124;28;20053;-61
2021/05/04 01:52:33;;;;;;;9.40;4.50;;;6.90;85.50;;;;;;5047540;28;20045;-61
2021/05/04 01:55:00;;;;;;;12.98;4.47;;;6.80;86.90;;;;;;5048670;28;20041;-61
2021/05/04 01:57:27;;;;;;;8.30;4.03;;;7.00;85.70;;;;;;5048704;28;20053;-61
2021/05/04 01:59:54;;;;;;;10.00;4.28;;;7.00;85.60;;;;;;5022382;28;20049;-61
2021/05/04 02:02:20;;;;;;;6.85;3.50;;;7.00;86.00;;;;;;5046586;28;20057;-61
2021/05/04 02:04:47;;;;;;;8.45;4.00;;;7.00;85.70;;;;;;5050219;28;20063;-61
2021/05/04 02:07:13;;;;;;;10.90;5.00;;;6.70;86.50;;;;;;5047701;28;20094;-61
2021/05/04 02:09:41;;;;;;;7.45;4.20;;;6.90;86.50;;;;;;5030826;28;20080;-61
2021/05/04 02:12:07;;;;;;;9.52;4.82;;;6.90;85.70;;;;;;5032586;28;20094;-61
2021/05/04 02:14:34;;;;;;;7.95;4.32;;;6.90;85.90;;;;;;5049297;28;20037;-61
2021/05/04 02:17:00;;;;;;;9.07;4.38;;;6.80;86.10;;;;;;5046786;28;20098;-62
2021/05/04 02:19:27;;;;;;;9.43;4.68;;;6.70;87.70;;;;;;5030325;28;20046;-61
2021/05/04 02:21:53;;;;;;;10.32;4.07;;;6.60;87.80;;;;;;5049572;28;20399;-61
2021/05/04 02:24:20;;;;;;;8.60;4.20;;;6.70;87.90;;;;;;5053082;28;20052;-61
2021/05/04 02:26:46;;;;;;;9.90;4.13;;;6.70;87.70;;;;;;5047541;28;20049;-61
2021/05/04 02:29:13;;;;;;;9.48;4.57;;;6.80;88.10;;;;;;5051574;28;20048;-61
2021/05/04 02:31:39;;;;;;;8.48;4.45;;;6.80;88.50;;;;;;5052667;28;20463;-61
2021/05/04 02:34:06;;;;;;;9.02;4.38;;;6.90;88.20;;;;;;5032602;28;20138;-61
2021/05/04 02:36:32;;;;;;;9.80;4.75;;;6.70;89.10;;;;;;5052747;28;20107;-61
2021/05/04 02:38:59;;;;;;;8.98;4.38;;;6.70;89.50;;;;;;5051607;28;20399;-61
2021/05/04 02:41:25;;;;;;;10.32;5.57;;;6.50;90.40;;;;;;5051792;28;20507;-61
2021/05/04 02:43:52;;;;;;;6.65;3.72;;;6.50;90.50;;;;;;5050911;28;20377;-61
2021/05/04 02:46:18;;;;;;;9.45;4.35;;;6.60;90.20;;;;;;5032434;28;20048;-61
2021/05/04 02:48:45;;;;;;;11.00;4.72;;;6.60;90.40;;;;;;5045186;28;20052;-61
2021/05/04 02:51:12;;;;;;;12.27;5.32;;;6.60;90.30;;;;;;5052446;28;20049;-61
2021/05/04 02:53:39;;;;;;;10.50;5.65;;;6.70;90.00;;;;;;5031892;28;20553;-61
2021/05/04 02:56:07;;;;;;;10.27;4.93;;;6.60;90.30;;;;;;5052451;28;20041;-61
2021/05/04 02:58:34;;;;;;;8.88;3.95;;;6.50;90.40;;;;;;5051004;28;20492;-61
2021/05/04 03:01:01;;;;;;;8.52;4.18;;;6.50;90.50;;;;;;5052019;28;20053;-61
2021/05/04 03:03:27;;;;;;;12.43;5.00;;;6.60;90.30;;;;;;5054121;28;20052;-61
2021/05/04 03:05:54;;;;;;;12.55;4.82;;;6.60;90.10;;;;;;5052232;28;20471;-61
2021/05/04 03:08:20;;;;;;;10.38;4.13;;;6.60;90.00;;;;;;5024658;28;20047;-61
2021/05/04 03:10:47;;;;;;;9.40;4.43;;;6.40;90.20;;;;;;5045745;28;20057;-61
2021/05/04 03:13:14;;;;;;;9.45;4.78;;;6.30;90.00;;;;;;5034587;28;20060;-61
2021/05/04 03:15:40;;;;;;;9.88;4.13;;;6.40;89.80;;;;;;5031948;28;20045;-61
2021/05/04 03:18:07;;;;;;;10.98;4.60;;;6.40;89.50;;;;;;5050194;28;20041;-61
2021/05/04 03:20:34;;;;;;;13.57;5.40;;;6.30;88.90;;;;;;5033101;28;20049;-61
2021/05/04 03:23:01;;;;;;;11.40;5.28;;;6.30;88.60;;;;;;5034022;28;20061;-61
2021/05/04 03:25:28;;;;;;;11.73;4.47;;;6.20;88.90;;;;;;5050158;28;20056;-61
2021/05/04 03:27:57;;;;;;;12.38;5.22;;;6.10;88.70;;;;;;5050916;28;20071;-61
2021/05/04 03:30:25;;;;;;;16.42;6.30;;;6.00;89.20;;;;;;5051245;28;20420;-61
2021/05/04 03:32:52;;;;;;;13.23;5.28;;;5.90;89.60;;;;;;5021948;28;20053;-61
2021/05/04 03:35:19;;;;;;;11.60;5.15;;;6.00;90.00;;;;;;5028953;28;20508;-61
2021/05/04 03:37:47;;;;;;;12.85;4.97;;;6.10;88.50;;;;;;5050926;28;20053;-61
2021/05/04 03:40:15;;;;;;;11.27;5.88;;;6.10;88.60;;;;;;5048648;28;20397;-61
2021/05/04 03:42:42;;;;;;;10.73;4.78;;;6.10;89.00;;;;;;5049207;28;20053;-61
2021/05/04 03:45:11;;;;;;;10.43;4.55;;;6.10;88.90;;;;;;5031168;28;20063;-61
2021/05/04 03:47:43;;;;;;;11.60;4.70;;;6.10;89.50;;;;;;5049787;28;20056;-61
2021/05/04 03:50:15;;;;;;;12.02;5.28;;;6.10;89.40;;;;;;5051367;28;20059;-61
2021/05/04 03:52:42;;;;;;;12.18;5.47;;;6.00;89.50;;;;;;5036078;28;20133;-61
2021/05/04 03:55:10;;;;;;;14.15;6.43;;;6.00;90.00;;;;;;5026654;28;20064;-61
2021/05/04 03:57:37;;;;;;;14.57;6.78;;;6.20;89.60;;;;;;5032229;28;20663;-61
2021/05/04 04:00:06;;;;;;;14.30;6.45;;;6.40;89.50;;;;;;5050589;28;20079;-61
2021/05/04 04:02:33;;;;;;;12.73;5.72;;;6.30;89.50;;;;;;5050121;28;20052;-61
2021/05/04 04:05:00;;;;;;;11.00;5.97;;;6.30;89.70;;;;;;5049135;28;20056;-61
2021/05/04 04:07:30;;;;;;;13.68;5.40;;;6.30;89.90;;;;;;5032297;28;20053;-61
2021/05/04 04:09:57;;;;;;;11.90;5.85;;;6.20;90.10;;;;;;5047267;28;20706;-61
2021/05/04 04:12:24;;;;;;;13.63;6.70;;;6.40;90.10;;;;;;5046698;28;20446;-61
2021/05/04 04:14:53;;;;;;;15.82;7.05;;;6.40;90.20;;;;;;5043725;28;20132;-61
2021/05/04 04:17:21;;;;;;;13.02;6.72;;;6.20;90.70;;;;;;5048083;28;20045;-61
2021/05/04 04:19:48;;;;;;;14.68;6.78;;;6.40;90.80;;;;;;5005111;28;20471;-61
2021/05/04 04:22:15;;;;;;;14.50;7.25;;;6.50;91.00;;;;;;5032179;28;20052;-61
2021/05/04 04:24:42;;;;;;;13.50;6.65;;;6.50;91.00;;;;;;5050463;28;20077;-61
2021/05/04 04:27:09;;;;;;;13.73;6.32;;;6.70;90.80;;;;;;5049638;28;20107;-61
2021/05/04 04:29:36;;;;;;;10.90;5.82;;;6.80;91.00;;;;;;5015835;28;20072;-61
2021/05/04 04:32:04;;;;;;;12.02;5.88;;;7.00;90.60;;;;;;5050178;28;20053;-61
2021/05/04 04:34:31;;;;;;;14.65;5.75;;;7.10;90.40;;;;;;5021700;28;20107;-61
2021/05/04 04:36:57;;;;;;;14.07;6.35;;;7.20;90.10;;;;;;5043530;28;20053;-61
2021/05/04 04:39:25;;;;;;;15.45;6.28;;;7.20;90.40;;;;;;5027362;28;20052;-61
2021/05/04 04:41:51;;;;;;;17.05;6.80;;;7.30;90.80;;;;;;5040003;28;20049;-61
2021/05/04 04:44:18;;;;;;;11.77;6.10;;;7.40;90.80;;;;;;5048539;28;20110;-61
2021/05/04 04:46:45;;;;;;;14.40;7.18;;;7.40;91.20;;;;;;5050262;28;20144;-61
2021/05/04 04:49:17;;;;;;;16.30;6.40;;;7.50;91.10;;;;;;5031810;28;20048;-61
2021/05/04 04:51:45;;;;;;;15.13;6.65;;;7.70;91.20;;;;;;5031950;28;20056;-61
2021/05/04 04:54:12;;;;;;;14.77;6.05;;;7.70;91.30;;;;;;5049341;28;20495;-61
2021/05/04 04:56:39;;;;;;;13.05;5.70;;;7.80;91.40;;;;;;5022830;28;20064;-61
2021/05/04 04:59:05;;;;;;;15.88;6.90;;;7.90;91.40;;;;;;5047700;28;20049;-61
2021/05/04 05:01:36;;;;;;;12.40;6.25;;;7.90;91.10;;;;;;5049232;28;20053;-61
2021/05/04 05:04:03;;;;;;;12.68;6.18;;;8.00;91.10;;;;;;5032160;28;20057;-61
2021/05/04 05:06:31;;;;;;;13.52;5.95;;;8.10;91.10;;;;;;5050666;28;20095;-61
2021/05/04 05:08:57;;;;;;;13.20;6.75;;;8.10;91.30;;;;;;5047380;28;20049;-61
2021/05/04 05:11:24;;;;;;;14.18;6.95;;;8.10;91.30;;;;;;5042479;28;20123;-61
2021/05/04 05:13:50;;;;;;;17.13;6.22;;;8.10;91.50;;;;;;5014477;28;20045;-61
2021/05/04 05:16:19;;;;;;;21.55;7.88;;;8.30;91.90;;;;;;5051063;28;20045;-61
2021/05/04 05:18:51;;;;;;;;;;;8.30;91.80;;;;;;5001066;28;20050;-61
2021/05/04 05:21:18;;;;;;;12.52;5.95;;;8.50;91.60;;;;;;5029608;28;20576;-61
2021/05/04 05:23:45;;;;;;;16.02;7.15;;;8.60;91.80;;;;;;4996816;28;20052;-61
2021/05/04 05:26:12;;;;;;;13.30;6.13;;;8.80;91.60;;;;;;5028672;28;20412;-61
2021/05/04 05:28:39;;;;;;;12.60;5.80;;;8.90;91.90;;;;;;5027814;28;20049;-61
2021/05/04 05:31:06;;;;;;;10.95;6.05;;;9.10;91.80;;;;;;5028579;28;20049;-61
2021/05/04 05:33:33;;;;;;;10.57;5.72;;;9.20;91.60;;;;;;5028326;28;20049;-61
2021/05/04 05:36:00;;;;;;;13.43;6.82;;;9.30;91.80;;;;;;5011143;28;20555;-61
2021/05/04 05:38:31;;;;;;;13.23;5.63;;;9.40;91.70;;;;;;4993160;28;20129;-61
2021/05/04 05:40:58;;;;;;;18.15;6.40;;;9.50;91.50;;;;;;5021702;28;20508;-61
2021/05/04 05:43:25;;;;;;;12.20;5.28;;;9.50;91.60;;;;;;5008541;28;20065;-62
2021/05/04 05:45:51;;;;;;;15.32;5.88;;;9.60;91.20;;;;;;5027881;28;20053;-61
2021/05/04 05:48:18;;;;;;;10.57;5.75;;;9.60;91.10;;;;;;5031095;28;20111;-61
2021/05/04 05:50:44;;;;;;;13.30;6.28;;;9.70;90.90;;;;;;5011259;28;20057;-61
2021/05/04 05:53:11;;;;;;;12.13;6.00;;;9.80;90.80;;;;;;5027131;28;20046;-61
2021/05/04 05:55:37;;;;;;;10.90;5.22;;;9.90;90.70;;;;;;5033870;28;20108;-61
2021/05/04 05:58:04;;;;;;;12.93;5.80;;;10.00;91.00;;;;;;5014063;28;20053;-61
2021/05/04 06:00:30;;;;;;;14.15;6.82;;;10.10;90.90;;;;;;5011283;28;20054;-61
2021/05/04 06:03:02;;;;;;;12.98;6.28;;;10.10;91.10;;;;;;5014006;28;20053;-61
2021/05/04 06:05:29;;;;;;;16.23;5.65;;;10.20;91.00;;;;;;5031143;28;20168;-61
2021/05/04 06:07:56;;;;;;;12.10;5.95;;;10.30;91.00;;;;;;5029160;28;20064;-61
2021/05/04 06:10:23;;;;;;;11.90;5.70;;;10.40;91.20;;;;;;5011566;28;20041;-61
2021/05/04 06:13:06;;;;;;;12.40;5.68;;;10.60;91.80;;;;;;5014305;28;20468;-61
2021/05/04 06:15:33;;;;;;;;;;;10.70;91.10;;;;;;5014458;28;20057;-61
2021/05/04 06:18:00;;;;;;;10.70;5.05;;;10.80;91.00;;;;;;5045395;28;19920;-61
2021/05/04 06:20:27;;;;;;;10.10;5.38;;;10.90;90.80;;;;;;5051871;28;20049;-61
2021/05/04 06:22:53;;;;;;;8.57;4.82;;;10.90;90.90;;;;;;5032519;28;20372;-62
2021/05/04 06:25:20;;;;;;;11.30;5.20;;;11.00;90.80;;;;;;5033990;28;20431;-61
2021/05/04 06:27:52;;;;;;;12.57;4.53;;;11.20;90.60;;;;;;5053009;28;20083;-61
2021/05/04 06:30:20;;;;;;;10.60;4.63;;;11.30;90.00;;;;;;5051436;28;20041;-61
2021/05/04 06:32:48;;;;;;;9.77;4.43;;;11.40;88.10;;;;;;5053888;28;20095;-61
2021/05/04 06:35:19;;;;;;;11.27;4.55;;;11.40;87.00;;;;;;5040423;28;20049;-62
2021/05/04 06:37:46;;;;;;;11.57;4.93;;;11.50;87.40;;;;;;5036311;28;20049;-61
2021/05/04 06:40:15;;;;;;;10.77;4.57;;;11.60;87.80;;;;;;5048513;28;20480;-61
2021/05/04 06:42:41;;;;;;;9.38;4.65;;;11.70;86.40;;;;;;5054942;28;20110;-61
2021/05/04 06:45:09;;;;;;;12.38;4.00;;;11.80;85.80;;;;;;5054819;28;20057;-61
2021/05/04 06:47:35;;;;;;;6.65;3.65;;;11.90;85.10;;;;;;5035092;28;20055;-61
2021/05/04 06:50:05;;;;;;;5.55;3.13;;;12.00;84.40;;;;;;5026356;28;20083;-61
2021/05/04 06:52:32;;;;;;;6.43;3.17;;;12.10;82.70;;;;;;5032787;28;20049;-62
2021/05/04 06:54:58;;;;;;;5.93;3.63;;;12.30;81.30;;;;;;5054565;28;20040;-62
2021/05/04 06:57:25;;;;;;;6.75;3.15;;;12.40;82.20;;;;;;5050744;28;20076;-62
2021/05/04 06:59:52;;;;;;;14.65;3.90;;;12.50;80.00;;;;;;5033213;28;20060;-61
2021/05/04 07:02:18;;;;;;;7.55;3.97;;;12.50;79.50;;;;;;5032811;28;20404;-61
2021/05/04 07:04:45;;;;;;;9.43;3.80;;;12.60;78.60;;;;;;5016117;28;20053;-61
2021/05/04 07:07:12;;;;;;;6.60;3.80;;;12.60;79.10;;;;;;5047047;28;20053;-61
2021/05/04 07:09:39;;;;;;;8.07;4.05;;;12.70;77.90;;;;;;5022674;28;20381;-61
2021/05/04 07:12:06;;;;;;;6.50;3.20;;;12.70;77.70;;;;;;5051845;28;20064;-61
2021/05/04 07:14:33;;;;;;;8.90;3.92;;;12.80;78.50;;;;;;5051043;28;20053;-61
2021/05/04 07:17:02;;;;;;;7.05;3.40;;;13.00;76.20;;;;;;5033132;28;20057;-61
2021/05/04 07:19:29;;;;;;;6.60;3.28;;;13.00;75.50;;;;;;5050190;28;20119;-61
2021/05/04 07:21:56;;;;;;;8.75;3.97;;;13.10;75.80;;;;;;5052005;28;20448;-61
2021/05/04 07:24:23;;;;;;;9.20;3.50;;;13.10;75.30;;;;;;5050748;28;20537;-61
2021/05/04 07:26:50;;;;;;;5.72;2.97;;;13.30;76.10;;;;;;5051268;28;20067;-61
2021/05/04 07:29:17;;;;;;;6.43;3.35;;;13.40;74.80;;;;;;5050739;28;20060;-61
2021/05/04 07:31:44;;;;;;;7.95;3.55;;;13.50;71.50;;;;;;5050569;28;20056;-61
2021/05/04 07:34:10;;;;;;;6.35;3.20;;;13.50;71.20;;;;;;5030005;28;20115;-61
2021/05/04 07:36:37;;;;;;;6.03;2.47;;;13.60;70.30;;;;;;5049335;28;20107;-61
2021/05/04 07:39:05;;;;;;;8.82;2.60;;;13.70;69.00;;;;;;5050711;28;20116;-61
2021/05/04 07:41:32;;;;;;;6.75;2.42;;;13.80;68.80;;;;;;5025004;28;20056;-62
2021/05/04 07:43:59;;;;;;;5.35;2.58;;;13.90;68.20;;;;;;5050945;28;20429;-62
2021/05/04 07:46:25;;;;;;;3.65;1.73;;;13.90;67.20;;;;;;5050614;28;20518;-62
2021/05/04 07:48:53;;;;;;;3.70;2.13;;;13.90;66.10;;;;;;5033462;28;20056;-62
2021/05/04 07:51:36;;;;;;;5.20;2.08;;;13.90;66.90;;;;;;5034572;28;20053;-62
2021/05/04 07:54:03;;;;;;;4.13;1.60;;;14.10;65.30;;;;;;5049082;28;20045;-62
2021/05/04 07:56:30;;;;;;;3.20;1.02;;;14.10;64.20;;;;;;5051839;28;20754;-62
2021/05/04 07:58:57;;;;;;;3.80;1.30;;;14.10;63.30;;;;;;5045549;28;20049;-62
2021/05/04 08:01:23;;;;;;;4.75;2.10;;;14.20;63.10;;;;;;5047372;28;20067;-62
2021/05/04 08:03:50;;;;;;;5.05;1.65;;;14.30;64.10;;;;;;5031749;28;20055;-61
2021/05/04 08:06:17;;;;;;;4.30;1.65;;;14.30;64.00;;;;;;5045390;28;20053;-61
2021/05/04 08:08:43;;;;;;;2.97;1.48;;;14.30;64.20;;;;;;5051745;28;20064;-61
2021/05/04 08:11:10;;;;;;;3.92;1.30;;;14.40;64.10;;;;;;5032672;28;20057;-61
2021/05/04 08:13:37;;;;;;;2.42;1.40;;;14.40;62.20;;;;;;5048678;28;20084;-61
2021/05/04 08:16:07;;;;;;;4.28;1.20;;;14.50;63.60;;;;;;5031284;28;20060;-61
2021/05/04 08:18:35;;;;;;;4.03;1.60;;;14.60;64.60;;;;;;5045203;28;20128;-61
2021/05/04 08:21:02;;;;;;;3.75;1.17;;;14.50;61.80;;;;;;5050220;28;20455;-61
2021/05/04 08:23:29;;;;;;;2.25;0.88;;;14.60;62.70;;;;;;5048588;28;20399;-61
2021/05/04 08:25:56;;;;;;;2.63;1.10;;;14.70;60.70;;;;;;5051029;28;20080;-61
2021/05/04 08:28:22;;;;;;;4.40;1.60;;;14.70;59.90;;;;;;5031597;28;20083;-61
2021/05/04 08:30:53;;;;;;;4.05;1.23;;;14.60;61.10;;;;;;5049800;28;20064;-61
2021/05/04 08:33:21;;;;;;;3.95;1.35;;;14.70;61.90;;;;;;5046722;28;20049;-63
2021/05/04 08:35:47;;;;;;;1.73;0.43;;;14.80;60.40;;;;;;5030503;28;20052;-63
2021/05/04 08:38:14;;;;;;;1.70;0.60;;;15.00;59.70;;;;;;5031582;28;20048;-63
2021/05/04 08:40:42;;;;;;;1.20;0.57;;;15.10;58.20;;;;;;5046446;28;20064;-63
2021/05/04 08:43:10;;;;;;;4.20;1.23;;;15.10;56.80;;;;;;5014418;28;20552;-63
2021/05/04 08:45:36;;;;;;;1.98;0.52;;;15.20;56.90;;;;;;5028287;28;20448;-63
2021/05/04 08:48:04;;;;;;;3.25;0.65;;;15.30;56.50;;;;;;5031994;28;20132;-63
2021/05/04 08:50:35;;;;;;;2.13;0.60;;;15.40;57.20;;;;;;5028116;28;20821;-64
2021/05/04 08:53:02;;;;;;;2.90;0.93;;;15.40;56.40;;;;;;5018782;28;20053;-63
2021/05/04 08:55:29;;;;;;;3.35;0.77;;;15.40;56.10;;;;;;5027459;28;20057;-64
2021/05/04 08:58:03;;;;;;;1.73;0.70;;;15.50;56.50;;;;;;5047470;28;20045;-63
2021/05/04 09:00:49;;;;;;;2.00;0.60;;;15.50;57.40;;;;;;5041576;28;20041;-63
2021/05/04 09:03:22;;;;;;;4.80;0.98;;;15.80;58.00;;;;;;5036436;28;20057;-63
2021/05/04 09:06:33;;;;;;;2.42;0.50;;;15.90;55.60;;;;;;5043291;28;20053;-63
2021/05/04 09:19:21;;;;;;;4.80;1.30;;;16.30;55.00;;;;;;5039764;28;20535;-63
2021/05/04 09:21:48;;;;;;;1.25;0.50;;;16.30;54.60;;;;;;5043883;28;20049;-62
2021/05/04 09:24:40;;;;;;;1.30;0.60;;;16.20;55.00;;;;;;5029443;28;20048;-63
2021/05/04 09:27:15;;;;;;;1.90;0.70;;;16.30;54.70;;;;;;5025289;28;20068;-63
2021/05/04 09:29:58;;;;;;;11.55;0.82;;;16.40;54.90;;;;;;5045141;28;20752;-63
2021/05/04 09:32:47;;;;;;;0.93;0.50;;;16.40;55.40;;;;;;5030292;28;20520;-63
2021/05/04 09:35:13;;;;;;;2.00;0.87;;;16.60;54.90;;;;;;5050285;28;20057;-63
2021/05/04 09:37:45;;;;;;;2.30;0.70;;;16.60;54.70;;;;;;5013448;28;20048;-63
2021/05/04 09:40:29;;;;;;;1.50;0.40;;;16.60;54.90;;;;;;5046966;28;20041;-63
2021/05/04 09:43:04;;;;;;;1.88;0.55;;;16.80;54.50;;;;;;5049293;28;20057;-64
2021/05/04 09:45:33;;;;;;;1.67;0.65;;;17.00;55.30;;;;;;5046280;28;20056;-64
2021/05/04 09:48:38;;;;;;;1.90;0.77;;;17.10;54.50;;;;;;5031598;28;20581;-63
2021/05/04 09:51:14;;;;;;;3.60;0.80;;;17.10;54.10;;;;;;4998678;28;20079;-63
2021/05/04 09:56:12;;;;;;;1.95;0.80;;;17.30;53.50;;;;;;5048964;28;20040;-63
2021/05/04 09:58:45;;;;;;;3.70;1.00;;;17.30;53.10;;;;;;5039483;28;20908;-64
2021/05/04 10:01:13;;;;;;;1.40;0.75;;;17.40;53.20;;;;;;5046969;28;20116;-64
2021/05/04 10:03:42;;;;;;;1.48;0.50;;;17.40;54.30;;;;;;5049616;28;20057;-64
2021/05/04 10:06:11;;;;;;;2.15;0.63;;;17.50;53.80;;;;;;5031437;28;20063;-64
2021/05/04 10:08:39;;;;;;;4.05;0.98;;;17.60;54.40;;;;;;5050484;28;20583;-63
2021/05/04 10:11:14;;;;;;;2.60;0.73;;;17.50;53.20;;;;;;5046606;28;20064;-63
2021/05/04 10:13:42;;;;;;;4.18;0.80;;;17.60;53.10;;;;;;5038362;28;20056;-63
2021/05/04 10:16:10;;;;;;;1.83;0.60;;;17.60;50.60;;;;;;5049328;28;20095;-63
2021/05/04 10:18:37;;;;;;;2.22;0.60;;;17.80;52.20;;;;;;5049773;28;20081;-63
2021/05/04 10:21:08;;;;;;;1.58;0.98;;;18.00;52.00;;;;;;5047119;28;20057;-63
2021/05/04 10:23:37;;;;;;;2.90;0.60;;;17.90;53.00;;;;;;5048426;28;20057;-63
2021/05/04 10:26:15;;;;;;;3.70;0.75;;;18.00;52.40;;;;;;5047051;28;20123;-62
2021/05/04 10:28:51;;;;;;;2.65;0.80;;;18.20;51.70;;;;;;5024340;28;20053;-62
2021/05/04 10:31:36;;;;;;;3.92;0.80;;;18.40;51.20;;;;;;5043905;28;20127;-62
2021/05/04 10:34:29;;;;;;;7.30;0.73;;;18.40;52.10;;;;;;5036327;28;20044;-62
2021/05/04 10:37:22;;;;;;;4.50;1.08;;;18.30;51.50;;;;;;5025155;28;20049;-63
2021/05/04 10:39:48;;;;;;;1.15;0.52;;;18.20;48.50;;;;;;5034376;28;20067;-63
2021/05/04 10:42:16;;;;;;;3.85;0.60;;;18.20;50.20;;;;;;5045326;28;20045;-63
2021/05/04 10:44:53;;;;;;;1.60;0.50;;;18.30;50.30;;;;;;5049751;28;20060;-63
2021/05/04 10:47:39;;;;;;;3.47;0.98;;;18.60;49.80;;;;;;5032929;28;20102;-63
2021/05/04 10:50:08;;;;;;;2.40;0.50;;;18.60;48.50;;;;;;5027378;28;20057;-63
2021/05/04 10:52:50;;;;;;;3.00;0.60;;;18.60;48.80;;;;;;5048370;28;20067;-63
2021/05/04 10:55:21;;;;;;;9.93;0.98;;;18.90;48.10;;;;;;5045379;28;20411;-63
2021/05/04 10:58:01;;;;;;;3.10;0.53;;;18.80;46.70;;;;;;5035994;28;20049;-63
2021/05/04 11:01:06;;;;;;;2.25;0.70;;;18.80;46.20;;;;;;5018032;28;20419;-63
2021/05/04 11:03:33;;;;;;;3.05;0.55;;;18.80;46.10;;;;;;5022774;28;20060;-64
2021/05/04 11:06:01;;;;;;;3.45;0.73;;;18.90;47.60;;;;;;5027239;28;20455;-63
2021/05/04 11:08:43;;;;;;;5.28;1.00;;;19.10;47.00;;;;;;5030190;28;20528;-66
2021/05/04 11:11:29;;;;;;;1.08;0.50;;;19.20;46.30;;;;;;5017484;28;20053;-65
2021/05/04 11:13:58;;;;;;;3.42;1.05;;;19.30;45.50;;;;;;5047570;28;20056;-65
2021/05/04 11:16:35;;;;;;;2.63;0.60;;;19.30;44.50;;;;;;5026842;28;20050;-65
2021/05/04 11:19:08;;;;;;;2.55;0.63;;;19.50;44.30;;;;;;5020686;28;20118;-64
2021/05/04 11:21:39;;;;;;;2.20;0.35;;;19.50;43.50;;;;;;5013341;28;20053;-64
2021/05/04 11:24:16;;;;;;;2.25;0.70;;;;;;;;;;5029792;28;20067;-64
2021/05/04 11:26:57;;;;;;;0.85;0.30;;;;;;;;;;5040937;28;20053;-64
2021/05/04 11:29:33;;;;;;;14.45;1.35;;;;;;;;;;5041885;28;20063;-63
2021/05/04 11:32:13;;;;;;;2.40;0.60;;;;;;;;;;5045559;28;20061;-63
2021/05/04 11:34:44;;;;;;;2.38;0.40;;;20.00;42.10;;;;;;5046769;28;20411;-64
2021/05/04 11:37:35;;;;;;;0.93;0.40;;;20.20;43.10;;;;;;5047873;28;20047;-64
2021/05/04 11:40:18;;;;;;;1.30;0.30;;;20.00;41.50;;;;;;5036883;28;20141;-64
2021/05/04 11:42:52;;;;;;;3.05;0.52;;;20.10;42.40;;;;;;5018061;28;20051;-63
2021/05/04 11:45:18;;;;;;;3.42;0.35;;;20.10;42.00;;;;;;5045047;28;20068;-64
2021/05/04 11:47:51;;;;;;;1.30;0.38;;;20.10;40.30;;;;;;5008767;28;20053;-64
2021/05/04 11:50:26;;;;;;;1.27;0.38;;;20.30;42.40;;;;;;5024144;28;20515;-64
2021/05/04 11:52:56;;;;;;;2.90;0.30;;;20.50;42.00;;;;;;5046980;28;20044;-64
2021/05/04 11:55:37;;;;;;;0.88;0.38;;;20.50;41.20;;;;;;5022489;28;20057;-64
2021/05/04 11:58:07;;;;;;;1.13;0.20;;;20.70;40.40;;;;;;5044926;28;20057;-64
2021/05/04 12:00:38;;;;;;;0.75;0.20;;;20.90;41.40;;;;;;5026089;28;20507;-65
2021/05/04 12:03:09;;;;;;;1.83;0.40;;;21.10;42.20;;;;;;5042787;28;20072;-65
2021/05/04 12:05:37;;;;;;;1.92;0.77;;;21.40;40.70;;;;;;5037672;28;20136;-63
2021/05/04 12:08:05;;;;;;;1.95;0.70;;;21.70;40.70;;;;;;5048270;28;20538;-64
2021/05/04 12:10:37;;;;;;;2.67;0.60;;;21.80;39.50;;;;;;5047729;28;20061;-64
2021/05/04 12:13:14;;;;;;;1.88;0.35;;;21.70;40.20;;;;;;5029062;28;20072;-65
2021/05/04 12:15:43;;;;;;;2.35;0.50;;;21.90;40.80;;;;;;5020719;28;21018;-65
2021/05/04 12:18:11;;;;;;;3.67;0.50;;;22.20;40.60;;;;;;5024558;28;20697;-65
2021/05/04 12:20:47;;;;;;;0.80;0.40;;;22.30;38.00;;;;;;5044105;28;20053;-64
2021/05/04 12:23:35;;;;;;;2.15;0.40;;;22.30;38.70;;;;;;5045381;28;20049;-64
2021/05/04 12:26:07;;;;;;;1.15;0.43;;;22.40;38.70;;;;;;5045293;28;20067;-67
2021/05/04 12:28:46;;;;;;;1.90;0.60;;;22.30;38.20;;;;;;5027894;28;20060;-66
2021/05/04 12:31:19;;;;;;;2.55;0.50;;;22.50;38.60;;;;;;5045979;28;20053;-66
2021/05/04 12:33:48;;;;;;;3.90;0.20;;;22.30;37.00;;;;;;5044462;28;20041;-66
2021/05/04 12:36:59;;;;;;;0.70;0.20;;;22.40;36.90;;;;;;5028491;28;20044;-65
2021/05/04 12:39:29;;;;;;;7.68;0.40;;;22.80;37.60;;;;;;5001054;28;20129;-66
2021/05/04 12:41:59;;;;;;;0.95;0.43;;;22.80;38.00;;;;;;5006711;28;20149;-65
2021/05/04 12:44:27;;;;;;;5.72;0.63;;;22.90;37.20;;;;;;4974385;28;20078;-64
2021/05/04 12:47:00;;;;;;;7.18;0.63;;;22.80;37.10;;;;;;5007152;28;20204;-64
2021/05/04 12:49:35;;;;;;;3.60;0.40;;;22.90;36.90;;;;;;4987756;28;20053;-64
2021/05/04 12:52:15;;;;;;;3.97;0.60;;;23.00;37.80;;;;;;4992598;28;20057;-64
2021/05/04 12:54:45;;;;;;;0.70;0.30;;;23.20;37.00;;;;;;4987525;28;20053;-64
2021/05/04 12:57:26;;;;;;;1.27;0.40;;;23.40;38.10;;;;;;5000603;28;20053;-64
2021/05/04 12:59:54;;;;;;;;;;;23.90;37.80;;;;;;5003575;28;20528;-64
2021/05/04 13:02:32;;;;;;;2.25;1.17;;;24.10;37.20;;;;;;4986828;28;19987;-63
2021/05/04 13:05:06;;;;;;;1.42;0.70;;;23.60;36.90;;;;;;4986743;28;20233;-63
2021/05/04 13:07:35;;;;;;;1.23;0.30;;;23.40;37.10;;;;;;4969534;28;20058;-63
2021/05/04 13:32:25;;;;;;;5.90;0.60;;;24.30;43.80;;;;;;5049030;28;20063;-69
2021/05/04 13:34:58;;;;;;;2.38;0.80;;;24.70;40.10;;;;;;5015029;28;20060;-66
2021/05/04 13:37:49;;;;;;;2.90;0.90;;;24.90;37.90;;;;;;5054992;28;20049;-72
2021/05/04 13:48:22;;;;;;;2.42;0.50;;;25.70;35.30;;;;;;5038839;28;20110;-65